Terminal Aerodrome Forecast
Issued by NWS Wilmington, OH

Current Version | Previous Version | Text Only | Print | Product List | Glossary Off
Versions: 1 2 3 4 5 6 7 8 9 10 11 12 13 14 15 16 17 18 19

000
FTUS41 KILN 280300 AAA
TAFILN
TAF AMD
KILN 280317Z 2803/2824 VRB03KT P6SM BKN200
     FM280800 08004KT P6SM BKN100
     FM281700 12008KT P6SM BKN060=

USA.gov is the U.S. government's official web portal to all federal, state and local government web resources and services.